Time,TemperatureF,DewpointF,PressureIn,WindDirection,WindDirectionDegrees,WindSpeedMPH,WindSpeedGustMPH,Humidity,HourlyPrecipIn,Conditions,Clouds,dailyrainin,SoftwareType,DateUTC
2013-07-12 00:01:00,78.1,74.8,29.92,West,265,0.0,0.0,90,0.00,,,0.31,meteohub,2013-07-12 04:01:00,
2013-07-12 00:02:00,78.1,74.8,29.92,West,265,0.0,0.0,90,0.00,,,0.31,meteohub,2013-07-12 04:02:00,
2013-07-12 00:03:00,78.1,74.8,29.92,West,265,0.0,0.0,90,0.00,,,0.31,meteohub,2013-07-12 04:03:00,
2013-07-12 00:07:00,78.1,74.5,29.92,West,265,0.0,0.0,89,0.00,,,0.31,meteohub,2013-07-12 04:07:00,
2013-07-12 00:12:00,78.3,75.0,29.92,West,265,0.0,1.0,90,0.00,,,0.00,meteohub,2013-07-12 04:12:00,
2013-07-12 00:18:00,78.3,75.0,29.92,West,265,0.0,1.0,90,0.00,,,0.00,meteohub,2013-07-12 04:18:00,
2013-07-12 00:23:00,78.3,74.7,29.91,West,265,0.0,1.0,89,0.00,,,0.00,meteohub,2013-07-12 04:23:00,
2013-07-12 00:28:00,78.3,74.7,29.92,West,265,0.0,1.0,89,0.00,,,0.00,meteohub,2013-07-12 04:28:00,
2013-07-12 00:33:00,78.1,74.5,29.91,West,265,0.0,1.0,89,0.00,,,0.00,meteohub,2013-07-12 04:33:00,
2013-07-12 00:38:00,77.9,74.5,29.91,West,265,0.0,0.0,89,0.00,,,0.00,meteohub,2013-07-12 04:38:00,
2013-07-12 00:43:00,77.7,74.5,29.91,West,265,0.0,0.0,90,0.00,,,0.00,meteohub,2013-07-12 04:43:00,
2013-07-12 00:48:00,77.7,74.5,29.91,West,265,0.0,1.0,90,0.00,,,0.00,meteohub,2013-07-12 04:48:00,
2013-07-12 00:53:00,77.7,74.3,29.91,West,265,0.0,1.0,89,0.00,,,0.00,meteohub,2013-07-12 04:53:00,
2013-07-12 00:58:00,77.7,74.3,29.91,West,265,0.0,1.0,89,0.00,,,0.00,meteohub,2013-07-12 04:58:00,
2013-07-12 01:03:00,77.5,74.1,29.91,West,265,0.0,1.0,89,0.00,,,0.00,meteohub,2013-07-12 05:03:00,
2013-07-12 01:08:00,77.5,74.3,29.91,West,265,0.0,0.0,90,0.00,,,0.00,meteohub,2013-07-12 05:08:00,
2013-07-12 01:13:00,77.5,74.3,29.91,West,265,0.0,0.0,90,0.00,,,0.00,meteohub,2013-07-12 05:13:00,
2013-07-12 01:18:00,77.5,74.1,29.91,West,265,0.0,1.0,89,0.00,,,0.00,meteohub,2013-07-12 05:18:00,
2013-07-12 01:23:00,77.5,74.1,29.91,West,265,0.0,1.0,89,0.00,,,0.00,meteohub,2013-07-12 05:23:00,
2013-07-12 01:28:00,77.5,74.1,29.91,West,265,0.0,1.0,89,0.00,,,0.00,meteohub,2013-07-12 05:28:00,
2013-07-12 01:33:00,77.5,74.1,29.91,West,265,0.0,1.0,89,0.00,,,0.00,meteohub,2013-07-12 05:33:00,
2013-07-12 01:38:00,77.5,74.1,29.90,West,265,0.0,1.0,89,0.00,,,0.00,meteohub,2013-07-12 05:38:00,
2013-07-12 01:43:00,77.5,74.1,29.90,West,265,0.0,1.0,89,0.00,,,0.00,meteohub,2013-07-12 05:43:00,
2013-07-12 01:49:00,77.4,73.9,29.91,West,265,0.0,1.0,89,0.00,,,0.00,meteohub,2013-07-12 05:49:00,
2013-07-12 01:54:00,77.2,73.8,29.90,West,265,0.0,0.0,89,0.00,,,0.00,meteohub,2013-07-12 05:54:00,
2013-07-12 01:59:00,77.2,73.9,29.90,West,265,0.0,0.0,90,0.00,,,0.00,meteohub,2013-07-12 05:59:00,
2013-07-12 02:04:00,77.2,73.9,29.90,West,265,0.0,0.0,90,0.00,,,0.00,meteohub,2013-07-12 06:04:00,
2013-07-12 02:09:00,77.2,73.9,29.90,West,265,0.0,0.0,90,0.00,,,0.00,meteohub,2013-07-12 06:09:00,
2013-07-12 02:14:00,77.2,73.9,29.89,West,265,0.0,0.0,90,0.00,,,0.00,meteohub,2013-07-12 06:14:00,
2013-07-12 02:19:00,77.2,73.9,29.89,West,265,0.0,0.0,90,0.00,,,0.00,meteohub,2013-07-12 06:19:00,
2013-07-12 02:24:00,77.0,73.8,29.89,West,265,0.0,1.0,90,0.00,,,0.00,meteohub,2013-07-12 06:24:00,
2013-07-12 02:29:00,76.8,73.6,29.89,West,265,0.0,1.0,90,0.00,,,0.00,meteohub,2013-07-12 06:29:00,
2013-07-12 02:34:00,76.6,73.4,29.89,West,265,0.0,1.0,90,0.00,,,0.00,meteohub,2013-07-12 06:34:00,
2013-07-12 02:39:00,76.6,73.8,29.89,West,265,0.0,0.0,91,0.00,,,0.00,meteohub,2013-07-12 06:39:00,
2013-07-12 02:44:00,76.6,73.8,29.89,West,265,0.0,0.0,91,0.00,,,0.00,meteohub,2013-07-12 06:44:00,
2013-07-12 02:49:00,76.6,73.8,29.89,West,265,0.0,0.0,91,0.00,,,0.00,meteohub,2013-07-12 06:49:00,
2013-07-12 02:54:00,76.6,73.8,29.89,West,265,0.0,0.0,91,0.00,,,0.00,meteohub,2013-07-12 06:54:00,
2013-07-12 02:59:00,76.8,73.9,29.89,West,265,0.0,0.0,91,0.00,,,0.00,meteohub,2013-07-12 06:59:00,
2013-07-12 03:04:00,77.4,74.5,29.89,West,265,1.0,3.0,91,0.00,,,0.00,meteohub,2013-07-12 07:04:00,
2013-07-12 03:09:00,77.5,75.0,29.88,West,265,3.0,3.0,92,0.00,,,0.00,meteohub,2013-07-12 07:09:00,
2013-07-12 03:14:00,77.5,75.0,29.88,West,265,0.0,3.0,92,0.00,,,0.00,meteohub,2013-07-12 07:14:00,
2013-07-12 03:20:00,77.5,75.0,29.88,West,265,0.0,3.0,92,0.00,,,0.00,meteohub,2013-07-12 07:20:00,
2013-07-12 03:25:00,77.5,75.0,29.88,West,265,0.0,3.0,92,0.00,,,0.00,meteohub,2013-07-12 07:25:00,
2013-07-12 03:30:00,77.5,75.4,29.88,West,265,0.0,2.0,93,0.00,,,0.00,meteohub,2013-07-12 07:30:00,
2013-07-12 03:35:00,77.4,75.2,29.88,West,265,0.0,1.0,93,0.00,,,0.00,meteohub,2013-07-12 07:35:00,
2013-07-12 03:40:00,77.4,75.2,29.87,West,265,0.0,0.0,93,0.00,,,0.00,meteohub,2013-07-12 07:40:00,
2013-07-12 03:45:00,77.4,75.2,29.87,West,265,0.0,0.0,93,0.00,,,0.00,meteohub,2013-07-12 07:45:00,
2013-07-12 03:50:00,77.4,75.6,29.87,West,265,0.0,0.0,94,0.00,,,0.00,meteohub,2013-07-12 07:50:00,
2013-07-12 03:55:00,77.4,75.2,29.87,West,265,0.0,0.0,93,0.00,,,0.00,meteohub,2013-07-12 07:55:00,
2013-07-12 04:00:00,77.2,75.0,29.87,West,265,0.0,0.0,93,0.00,,,0.00,meteohub,2013-07-12 08:00:00,
2013-07-12 04:05:00,77.0,74.8,29.87,West,265,0.0,0.0,93,0.00,,,0.00,meteohub,2013-07-12 08:05:00,
2013-07-12 04:10:00,77.0,74.8,29.87,West,265,0.0,0.0,93,0.00,,,0.00,meteohub,2013-07-12 08:10:00,
2013-07-12 04:15:00,77.2,75.0,29.87,West,265,0.0,0.0,93,0.01,,,0.01,meteohub,2013-07-12 08:15:00,
2013-07-12 04:20:00,77.2,75.0,29.87,West,265,0.0,1.0,93,0.01,,,0.01,meteohub,2013-07-12 08:20:00,
2013-07-12 04:25:00,77.2,75.0,29.87,West,265,0.0,1.0,93,0.01,,,0.01,meteohub,2013-07-12 08:25:00,
2013-07-12 04:30:00,77.2,75.0,29.87,West,265,0.0,1.0,93,0.01,,,0.01,meteohub,2013-07-12 08:30:00,
2013-07-12 04:35:00,77.0,74.8,29.87,West,265,0.0,1.0,93,0.01,,,0.01,meteohub,2013-07-12 08:35:00,
2013-07-12 04:40:00,76.8,74.7,29.87,West,265,0.0,0.0,93,0.01,,,0.01,meteohub,2013-07-12 08:40:00,
2013-07-12 04:45:00,76.6,74.5,29.87,West,265,0.0,0.0,93,0.01,,,0.01,meteohub,2013-07-12 08:45:00,
2013-07-12 04:51:00,76.6,74.5,29.86,West,265,0.0,0.0,93,0.01,,,0.01,meteohub,2013-07-12 08:51:00,
2013-07-12 04:56:00,76.5,74.7,29.87,West,265,0.0,0.0,94,0.01,,,0.01,meteohub,2013-07-12 08:56:00,
2013-07-12 05:01:00,76.5,74.7,29.87,West,265,0.0,0.0,94,0.01,,,0.01,meteohub,2013-07-12 09:01:00,
2013-07-12 05:06:00,76.5,74.7,29.87,West,265,0.0,0.0,94,0.01,,,0.01,meteohub,2013-07-12 09:06:00,
2013-07-12 05:11:00,76.5,74.7,29.87,West,265,0.0,0.0,94,0.00,,,0.01,meteohub,2013-07-12 09:11:00,
2013-07-12 05:16:00,76.3,74.5,29.87,West,265,0.0,0.0,94,0.00,,,0.01,meteohub,2013-07-12 09:16:00,
2013-07-12 05:21:00,76.3,74.5,29.87,West,265,0.0,0.0,94,0.00,,,0.01,meteohub,2013-07-12 09:21:00,
2013-07-12 05:26:00,76.3,74.5,29.87,West,265,0.0,0.0,94,0.00,,,0.01,meteohub,2013-07-12 09:26:00,
2013-07-12 05:31:00,76.3,74.5,29.87,West,265,0.0,0.0,94,0.00,,,0.01,meteohub,2013-07-12 09:31:00,
2013-07-12 05:36:00,76.1,74.3,29.87,West,265,0.0,0.0,94,0.00,,,0.01,meteohub,2013-07-12 09:36:00,
2013-07-12 05:41:00,75.9,74.1,29.87,West,265,0.0,0.0,94,0.00,,,0.01,meteohub,2013-07-12 09:41:00,
2013-07-12 05:46:00,75.9,74.1,29.87,West,265,0.0,0.0,94,0.00,,,0.01,meteohub,2013-07-12 09:46:00,
2013-07-12 05:51:00,75.9,74.3,29.87,West,265,0.0,0.0,95,0.00,,,0.01,meteohub,2013-07-12 09:51:00,
2013-07-12 05:56:00,75.9,74.3,29.87,West,265,0.0,0.0,95,0.00,,,0.01,meteohub,2013-07-12 09:56:00,
2013-07-12 06:01:00,75.7,74.1,29.87,West,265,0.0,0.0,95,0.00,,,0.01,meteohub,2013-07-12 10:01:00,
2013-07-12 06:06:00,75.7,74.1,29.87,West,265,0.0,0.0,95,0.00,,,0.01,meteohub,2013-07-12 10:06:00,
2013-07-12 06:12:00,75.7,74.1,29.87,West,265,0.0,0.0,95,0.00,,,0.01,meteohub,2013-07-12 10:12:00,
2013-07-12 06:17:00,75.7,74.1,29.87,West,265,0.0,0.0,95,0.00,,,0.01,meteohub,2013-07-12 10:17:00,
2013-07-12 06:22:00,75.7,74.1,29.88,West,265,0.0,0.0,95,0.00,,,0.01,meteohub,2013-07-12 10:22:00,
2013-07-12 06:27:00,75.6,73.8,29.88,West,265,0.0,0.0,94,0.00,,,0.01,meteohub,2013-07-12 10:27:00,
2013-07-12 06:32:00,75.6,73.9,29.88,West,265,0.0,0.0,95,0.00,,,0.01,meteohub,2013-07-12 10:32:00,
2013-07-12 06:37:00,75.6,73.9,29.88,West,265,0.0,0.0,95,0.00,,,0.01,meteohub,2013-07-12 10:37:00,
2013-07-12 06:42:00,75.7,74.1,29.88,West,265,0.0,0.0,95,0.00,,,0.01,meteohub,2013-07-12 10:42:00,
2013-07-12 06:47:00,75.7,74.1,29.88,West,265,0.0,0.0,95,0.00,,,0.01,meteohub,2013-07-12 10:47:00,
2013-07-12 06:52:00,75.7,74.1,29.88,West,265,0.0,0.0,95,0.00,,,0.01,meteohub,2013-07-12 10:52:00,
2013-07-12 06:57:00,75.6,73.9,29.88,West,265,0.0,0.0,95,0.00,,,0.01,meteohub,2013-07-12 10:57:00,
2013-07-12 07:02:00,75.6,73.8,29.88,West,265,0.0,0.0,94,0.00,,,0.01,meteohub,2013-07-12 11:02:00,
2013-07-12 07:07:00,75.6,73.8,29.88,West,265,0.0,0.0,94,0.00,,,0.01,meteohub,2013-07-12 11:07:00,
2013-07-12 07:12:00,75.6,73.9,29.88,West,265,0.0,0.0,95,0.00,,,0.01,meteohub,2013-07-12 11:12:00,
2013-07-12 07:17:00,75.6,73.9,29.88,West,265,0.0,0.0,95,0.00,,,0.01,meteohub,2013-07-12 11:17:00,
2013-07-12 07:22:00,75.7,74.1,29.88,West,265,0.0,0.0,95,0.00,,,0.01,meteohub,2013-07-12 11:22:00,
2013-07-12 07:27:00,75.9,74.3,29.89,West,265,0.0,0.0,95,0.00,,,0.01,meteohub,2013-07-12 11:27:00,
2013-07-12 07:32:00,76.3,74.7,29.89,West,265,0.0,0.0,95,0.00,,,0.01,meteohub,2013-07-12 11:32:00,
2013-07-12 07:37:00,76.6,75.0,29.89,West,265,0.0,0.0,95,0.00,,,0.01,meteohub,2013-07-12 11:37:00,
2013-07-12 07:42:00,76.8,75.0,29.89,West,265,0.0,0.0,94,0.00,,,0.01,meteohub,2013-07-12 11:42:00,
2013-07-12 07:47:00,77.4,75.6,29.89,West,265,0.0,1.0,94,0.00,,,0.01,meteohub,2013-07-12 11:47:00,
2013-07-12 07:52:00,77.7,75.6,29.89,West,265,0.0,1.0,93,0.00,,,0.01,meteohub,2013-07-12 11:52:00,
2013-07-12 07:57:00,78.3,76.1,29.89,West,265,0.0,1.0,93,0.00,,,0.01,meteohub,2013-07-12 11:57:00,
2013-07-12 08:02:00,79.0,76.1,29.89,West,265,0.0,1.0,91,0.00,,,0.01,meteohub,2013-07-12 12:02:00,
2013-07-12 08:07:00,79.9,76.3,29.89,West,265,0.0,2.0,89,0.00,,,0.01,meteohub,2013-07-12 12:07:00,
2013-07-12 08:12:00,80.8,76.3,29.90,West,265,0.0,3.0,86,0.00,,,0.01,meteohub,2013-07-12 12:12:00,
2013-07-12 08:17:00,81.7,76.6,29.90,West,265,0.0,3.0,85,0.00,,,0.01,meteohub,2013-07-12 12:17:00,
2013-07-12 08:22:00,82.4,76.6,29.90,West,265,0.0,3.0,83,0.00,,,0.01,meteohub,2013-07-12 12:22:00,
2013-07-12 08:27:00,82.9,76.1,29.90,West,265,0.0,2.0,80,0.00,,,0.01,meteohub,2013-07-12 12:27:00,
2013-07-12 08:32:00,83.8,76.6,29.90,West,265,0.0,3.0,79,0.00,,,0.01,meteohub,2013-07-12 12:32:00,
2013-07-12 08:37:00,84.4,75.9,29.90,West,265,2.0,4.0,76,0.00,,,0.01,meteohub,2013-07-12 12:37:00,
2013-07-12 08:42:00,84.9,76.5,29.90,West,265,1.0,5.0,76,0.00,,,0.01,meteohub,2013-07-12 12:42:00,
2013-07-12 08:47:00,85.5,76.6,29.90,West,265,3.0,5.0,75,0.00,,,0.01,meteohub,2013-07-12 12:47:00,
2013-07-12 08:52:00,85.8,75.7,29.90,West,265,3.0,5.0,72,0.00,,,0.01,meteohub,2013-07-12 12:52:00,
2013-07-12 08:57:00,86.4,77.0,29.90,West,265,3.0,4.0,74,0.00,,,0.01,meteohub,2013-07-12 12:57:00,
2013-07-12 09:02:00,87.1,76.1,29.90,West,265,2.0,4.0,70,0.00,,,0.01,meteohub,2013-07-12 13:02:00,
2013-07-12 09:07:00,87.3,76.3,29.90,West,265,0.0,4.0,70,0.00,,,0.01,meteohub,2013-07-12 13:07:00,
2013-07-12 09:12:00,87.6,76.1,29.90,West,265,0.0,4.0,69,0.00,,,0.01,meteohub,2013-07-12 13:12:00,
2013-07-12 09:17:00,87.3,75.9,29.90,West,265,0.0,4.0,69,0.00,,,0.01,meteohub,2013-07-12 13:17:00,
2013-07-12 09:22:00,86.2,75.2,29.91,West,265,1.0,4.0,70,0.00,,,0.01,meteohub,2013-07-12 13:22:00,
2013-07-12 09:27:00,85.5,75.0,29.90,West,265,1.0,4.0,71,0.00,,,0.01,meteohub,2013-07-12 13:27:00,
2013-07-12 09:32:00,85.3,74.8,29.91,West,265,2.0,4.0,71,0.00,,,0.01,meteohub,2013-07-12 13:32:00,
2013-07-12 09:37:00,85.3,74.3,29.91,West,265,3.0,4.0,70,0.00,,,0.01,meteohub,2013-07-12 13:37:00,
2013-07-12 09:42:00,85.5,75.0,29.91,West,265,0.0,3.0,71,0.00,,,0.01,meteohub,2013-07-12 13:42:00,
2013-07-12 09:48:00,86.2,75.2,29.91,West,265,1.0,4.0,70,0.00,,,0.01,meteohub,2013-07-12 13:48:00,
2013-07-12 09:53:00,86.9,75.6,29.91,West,265,1.0,4.0,69,0.00,,,0.01,meteohub,2013-07-12 13:53:00,
2013-07-12 09:58:00,88.0,75.6,29.91,West,265,3.0,4.0,67,0.00,,,0.01,meteohub,2013-07-12 13:58:00,
2013-07-12 10:03:00,88.3,75.6,29.91,West,265,3.0,4.0,66,0.00,,,0.01,meteohub,2013-07-12 14:03:00,
2013-07-12 10:08:00,87.6,74.8,29.91,West,265,5.0,5.0,66,0.00,,,0.01,meteohub,2013-07-12 14:08:00,
2013-07-12 10:13:00,87.3,74.5,29.91,West,265,3.0,6.0,66,0.00,,,0.01,meteohub,2013-07-12 14:13:00,
2013-07-12 10:18:00,87.1,75.2,29.91,West,265,0.0,6.0,68,0.00,,,0.01,meteohub,2013-07-12 14:18:00,
2013-07-12 10:23:00,87.8,75.0,29.91,West,265,3.0,6.0,66,0.00,,,0.01,meteohub,2013-07-12 14:23:00,
2013-07-12 10:28:00,88.0,75.2,29.91,West,265,0.0,4.0,66,0.00,,,0.01,meteohub,2013-07-12 14:28:00,
2013-07-12 10:33:00,87.6,75.7,29.91,West,265,1.0,5.0,68,0.00,,,0.01,meteohub,2013-07-12 14:33:00,
2013-07-12 10:38:00,87.3,75.4,29.91,West,265,3.0,5.0,68,0.00,,,0.01,meteohub,2013-07-12 14:38:00,
2013-07-12 10:43:00,87.3,76.3,29.91,West,265,4.0,4.0,70,0.00,,,0.01,meteohub,2013-07-12 14:43:00,
2013-07-12 10:48:00,87.1,75.7,29.91,West,265,0.0,5.0,69,0.00,,,0.01,meteohub,2013-07-12 14:48:00,
2013-07-12 10:53:00,86.4,75.4,29.91,West,265,1.0,5.0,70,0.00,,,0.01,meteohub,2013-07-12 14:53:00,
2013-07-12 10:58:00,86.2,75.7,29.91,West,265,0.0,5.0,71,0.00,,,0.01,meteohub,2013-07-12 14:58:00,
2013-07-12 11:03:00,87.1,75.7,29.91,West,265,3.0,3.0,69,0.00,,,0.01,meteohub,2013-07-12 15:03:00,
2013-07-12 11:09:00,89.1,75.7,29.91,West,265,5.0,5.0,65,0.00,,,0.01,meteohub,2013-07-12 15:09:00,
2013-07-12 11:14:00,88.0,74.7,29.91,SW,219,6.0,6.0,65,0.00,,,0.01,meteohub,2013-07-12 15:14:00,
2013-07-12 11:19:00,85.1,73.4,29.91,West,263,6.0,14.0,68,0.00,,,0.01,meteohub,2013-07-12 15:19:00,
2013-07-12 11:24:00,84.4,73.9,29.91,WNW,290,9.0,14.0,71,0.00,,,0.01,meteohub,2013-07-12 15:24:00,
2013-07-12 11:29:00,84.2,72.5,29.91,NW,317,7.0,14.0,68,0.00,,,0.01,meteohub,2013-07-12 15:29:00,
2013-07-12 11:34:00,83.8,72.1,29.91,NW,314,2.0,12.0,68,0.00,,,0.01,meteohub,2013-07-12 15:34:00,
2013-07-12 11:39:00,83.7,73.2,29.91,NW,313,4.0,9.0,71,0.00,,,0.01,meteohub,2013-07-12 15:39:00,
2013-07-12 11:44:00,84.6,73.2,29.91,NW,313,2.0,7.0,69,0.00,,,0.01,meteohub,2013-07-12 15:44:00,
2013-07-12 11:49:00,86.2,75.2,29.91,NW,313,2.0,5.0,70,0.00,,,0.01,meteohub,2013-07-12 15:49:00,
2013-07-12 11:54:00,88.0,76.1,29.91,NW,313,1.0,5.0,68,0.00,,,0.01,meteohub,2013-07-12 15:54:00,
2013-07-12 11:59:00,88.0,75.6,29.91,NW,313,4.0,4.0,67,0.00,,,0.01,meteohub,2013-07-12 15:59:00,
2013-07-12 12:04:00,86.9,75.6,29.91,NW,311,4.0,5.0,69,0.00,,,0.01,meteohub,2013-07-12 16:04:00,
2013-07-12 12:09:00,86.2,74.3,29.91,NW,311,3.0,6.0,68,0.00,,,0.01,meteohub,2013-07-12 16:09:00,
2013-07-12 12:15:00,85.3,73.9,29.91,NW,308,1.0,6.0,69,0.00,,,0.01,meteohub,2013-07-12 16:15:00,
2013-07-12 12:20:00,84.9,74.5,29.91,NW,306,2.0,6.0,71,0.00,,,0.01,meteohub,2013-07-12 16:20:00,
2013-07-12 12:25:00,84.7,75.2,29.91,NW,306,2.0,6.0,73,0.00,,,0.01,meteohub,2013-07-12 16:25:00,
2013-07-12 12:30:00,84.4,75.2,29.91,NW,306,1.0,5.0,74,0.00,,,0.01,meteohub,2013-07-12 16:30:00,
2013-07-12 12:35:00,84.4,75.6,29.91,NW,306,1.0,5.0,75,0.00,,,0.01,meteohub,2013-07-12 16:35:00,
2013-07-12 12:40:00,84.4,75.6,29.91,NW,306,1.0,5.0,75,0.00,,,0.01,meteohub,2013-07-12 16:40:00,
2013-07-12 12:45:00,84.0,74.8,29.91,NW,306,3.0,4.0,74,0.00,,,0.01,meteohub,2013-07-12 16:45:00,
2013-07-12 12:50:00,83.3,73.4,29.92,NW,306,2.0,3.0,72,0.00,,,0.01,meteohub,2013-07-12 16:50:00,
2013-07-12 12:55:00,82.6,73.4,29.92,NW,306,1.0,3.0,74,0.00,,,0.01,meteohub,2013-07-12 16:55:00,
2013-07-12 13:01:00,81.9,73.6,29.91,East,91,3.0,3.0,76,0.00,,,0.01,meteohub,2013-07-12 17:01:00,
2013-07-12 13:07:00,81.1,73.6,29.91,East,92,2.0,6.0,78,0.00,,,0.01,meteohub,2013-07-12 17:07:00,
2013-07-12 13:12:00,80.8,73.6,29.91,East,92,2.0,6.0,79,0.00,,,0.01,meteohub,2013-07-12 17:12:00,
2013-07-12 13:17:00,80.6,73.4,29.91,East,92,3.0,6.0,79,0.00,,,0.01,meteohub,2013-07-12 17:17:00,
2013-07-12 13:22:00,80.4,73.2,29.91,East,92,1.0,5.0,79,0.00,,,0.01,meteohub,2013-07-12 17:22:00,
2013-07-12 13:28:00,80.4,73.2,29.91,East,93,1.0,5.0,79,0.00,,,0.01,meteohub,2013-07-12 17:28:00,
2013-07-12 13:33:00,80.4,73.2,29.91,East,93,0.0,5.0,79,0.00,,,0.01,meteohub,2013-07-12 17:33:00,
2013-07-12 13:39:00,80.8,73.6,29.91,East,93,2.0,3.0,79,0.00,,,0.01,meteohub,2013-07-12 17:39:00,
2013-07-12 13:44:00,81.0,73.8,29.91,East,93,0.0,2.0,79,0.00,,,0.01,meteohub,2013-07-12 17:44:00,
2013-07-12 13:50:00,81.3,74.1,29.91,East,93,0.0,2.0,79,0.00,,,0.01,meteohub,2013-07-12 17:50:00,
2013-07-12 13:55:00,81.9,74.7,29.90,East,93,1.0,3.0,79,0.00,,,0.01,meteohub,2013-07-12 17:55:00,
2013-07-12 14:00:00,82.2,75.0,29.90,East,93,1.0,3.0,79,0.00,,,0.01,meteohub,2013-07-12 18:00:00,
2013-07-12 14:07:00,82.8,75.2,29.90,East,93,1.0,3.0,78,0.00,,,0.01,meteohub,2013-07-12 18:07:00,
2013-07-12 14:12:00,82.9,75.4,29.89,East,93,1.0,2.0,78,0.00,,,0.01,meteohub,2013-07-12 18:12:00,
2013-07-12 14:17:00,83.3,75.4,29.89,East,93,0.0,2.0,77,0.00,,,0.01,meteohub,2013-07-12 18:17:00,
2013-07-12 14:22:00,83.8,75.4,29.89,East,93,0.0,2.0,76,0.00,,,0.01,meteohub,2013-07-12 18:22:00,
2013-07-12 14:27:00,84.4,75.9,29.89,East,93,0.0,2.0,76,0.00,,,0.01,meteohub,2013-07-12 18:27:00,
2013-07-12 14:32:00,84.9,75.7,29.89,East,93,0.0,2.0,74,0.00,,,0.01,meteohub,2013-07-12 18:32:00,
2013-07-12 14:38:00,85.5,75.7,29.89,East,92,1.0,2.0,73,0.00,,,0.01,meteohub,2013-07-12 18:38:00,
2013-07-12 14:43:00,86.2,75.7,29.88,West,272,1.0,3.0,71,0.00,,,0.01,meteohub,2013-07-12 18:43:00,
2013-07-12 14:48:00,86.5,75.9,29.88,West,272,1.0,3.0,71,0.00,,,0.01,meteohub,2013-07-12 18:48:00,
2013-07-12 14:53:00,87.1,75.7,29.88,NW,319,2.0,3.0,69,0.00,,,0.01,meteohub,2013-07-12 18:53:00,
2013-07-12 14:58:00,87.8,75.4,29.88,WNW,286,4.0,4.0,67,0.00,,,0.01,meteohub,2013-07-12 18:58:00,
2013-07-12 15:04:00,88.2,74.8,29.88,West,281,0.0,5.0,65,0.00,,,0.01,meteohub,2013-07-12 19:04:00,
2013-07-12 15:09:00,88.2,74.8,29.88,West,270,2.0,5.0,65,0.00,,,0.01,meteohub,2013-07-12 19:09:00,
2013-07-12 15:14:00,88.3,75.6,29.88,West,264,0.0,6.0,66,0.00,,,0.01,meteohub,2013-07-12 19:14:00,
2013-07-12 15:19:00,88.7,75.0,29.88,West,281,0.0,6.0,64,0.00,,,0.01,meteohub,2013-07-12 19:19:00,
2013-07-12 15:24:00,89.4,74.7,29.88,WNW,285,1.0,6.0,62,0.00,,,0.01,meteohub,2013-07-12 19:24:00,
2013-07-12 15:30:00,89.4,76.1,29.88,West,275,1.0,6.0,65,0.00,,,0.01,meteohub,2013-07-12 19:30:00,
2013-07-12 15:35:00,89.6,75.7,29.88,WNW,302,2.0,7.0,64,0.00,,,0.01,meteohub,2013-07-12 19:35:00,
2013-07-12 15:40:00,89.6,75.7,29.88,WNW,302,3.0,7.0,64,0.00,,,0.01,meteohub,2013-07-12 19:40:00,
2013-07-12 15:45:00,89.2,75.9,29.88,WSW,257,2.0,7.0,65,0.00,,,0.01,meteohub,2013-07-12 19:45:00,
2013-07-12 15:51:00,89.4,75.6,29.87,WSW,257,1.0,6.0,64,0.00,,,0.01,meteohub,2013-07-12 19:51:00,
2013-07-12 15:56:00,90.1,75.4,29.87,West,264,3.0,6.0,62,0.00,,,0.01,meteohub,2013-07-12 19:56:00,
2013-07-12 16:02:00,90.7,75.4,29.87,West,262,1.0,7.0,61,0.00,,,0.01,meteohub,2013-07-12 20:02:00,
2013-07-12 16:07:00,91.2,75.4,29.86,West,280,4.0,7.0,60,0.00,,,0.01,meteohub,2013-07-12 20:07:00,
2013-07-12 16:12:00,91.6,74.7,29.86,West,276,4.0,7.0,58,0.00,,,0.01,meteohub,2013-07-12 20:12:00,
2013-07-12 16:17:00,91.9,75.0,29.86,WNW,282,1.0,8.0,58,0.00,,,0.01,meteohub,2013-07-12 20:17:00,
2013-07-12 16:22:00,92.5,75.0,29.86,WSW,254,8.0,8.0,57,0.00,,,0.01,meteohub,2013-07-12 20:22:00,
2013-07-12 16:27:00,91.9,74.5,29.86,West,262,4.0,10.0,57,0.00,,,0.01,meteohub,2013-07-12 20:27:00,
2013-07-12 16:32:00,91.8,75.4,29.86,West,259,4.0,10.0,59,0.00,,,0.01,meteohub,2013-07-12 20:32:00,
2013-07-12 16:37:00,91.2,75.4,29.87,West,273,5.0,10.0,60,0.00,,,0.01,meteohub,2013-07-12 20:37:00,
2013-07-12 16:43:00,91.0,73.8,29.87,West,268,4.0,7.0,57,0.00,,,0.01,meteohub,2013-07-12 20:43:00,
2013-07-12 16:48:00,91.2,74.3,29.87,West,267,6.0,7.0,58,0.00,,,0.01,meteohub,2013-07-12 20:48:00,
2013-07-12 16:53:00,90.7,74.3,29.87,WSW,254,2.0,9.0,59,0.00,,,0.01,meteohub,2013-07-12 20:53:00,
2013-07-12 16:59:00,89.8,74.5,29.87,West,275,6.0,9.0,61,0.00,,,0.01,meteohub,2013-07-12 20:59:00,
2013-07-12 17:05:00,89.4,74.7,29.86,West,262,3.0,9.0,62,0.00,,,0.01,meteohub,2013-07-12 21:05:00,
2013-07-12 17:11:00,89.6,75.4,29.86,West,267,6.0,8.0,63,0.00,,,0.01,meteohub,2013-07-12 21:11:00,
2013-07-12 17:16:00,90.1,74.8,29.86,West,261,3.0,9.0,61,0.00,,,0.01,meteohub,2013-07-12 21:16:00,
2013-07-12 17:22:00,90.5,75.2,29.86,West,267,1.0,9.0,61,0.00,,,0.01,meteohub,2013-07-12 21:22:00,
2013-07-12 17:27:00,90.1,74.8,29.86,WNW,286,5.0,9.0,61,0.00,,,0.01,meteohub,2013-07-12 21:27:00,
2013-07-12 17:32:00,90.3,74.1,29.86,West,269,5.0,8.0,59,0.00,,,0.01,meteohub,2013-07-12 21:32:00,
2013-07-12 17:37:00,90.5,74.7,29.86,West,273,4.0,8.0,60,0.00,,,0.01,meteohub,2013-07-12 21:37:00,
2013-07-12 17:42:00,90.1,72.9,29.86,West,269,4.0,9.0,57,0.00,,,0.01,meteohub,2013-07-12 21:42:00,
2013-07-12 17:48:00,89.2,74.5,29.86,West,275,4.0,9.0,62,0.00,,,0.01,meteohub,2013-07-12 21:48:00,
2013-07-12 17:53:00,88.2,75.4,29.86,West,272,5.0,9.0,66,0.00,,,0.01,meteohub,2013-07-12 21:53:00,
2013-07-12 17:59:00,89.1,75.7,29.85,West,273,4.0,9.0,65,0.00,,,0.01,meteohub,2013-07-12 21:59:00,
2013-07-12 18:04:00,89.6,76.3,29.86,WSW,258,7.0,9.0,65,0.00,,,0.01,meteohub,2013-07-12 22:04:00,
2013-07-12 18:09:00,89.1,75.2,29.86,WNW,286,4.0,7.0,64,0.00,,,0.01,meteohub,2013-07-12 22:09:00,
2013-07-12 18:14:00,87.3,75.4,29.86,WSW,255,7.0,8.0,68,0.00,,,0.01,meteohub,2013-07-12 22:14:00,
2013-07-12 18:19:00,86.4,75.4,29.86,WNW,284,3.0,8.0,70,0.00,,,0.01,meteohub,2013-07-12 22:19:00,
2013-07-12 18:25:00,85.6,75.2,29.86,West,278,2.0,8.0,71,0.00,,,0.01,meteohub,2013-07-12 22:25:00,
2013-07-12 18:30:00,85.5,75.4,29.86,West,278,2.0,7.0,72,0.00,,,0.01,meteohub,2013-07-12 22:30:00,
2013-07-12 18:35:00,85.8,75.7,29.86,West,279,9.0,9.0,72,0.00,,,0.01,meteohub,2013-07-12 22:35:00,
2013-07-12 18:40:00,86.0,75.6,29.86,NW,311,5.0,9.0,71,0.00,,,0.01,meteohub,2013-07-12 22:40:00,
2013-07-12 18:45:00,86.4,75.4,29.86,West,273,1.0,9.0,70,0.00,,,0.01,meteohub,2013-07-12 22:45:00,
2013-07-12 18:50:00,86.2,75.7,29.86,West,278,3.0,8.0,71,0.00,,,0.01,meteohub,2013-07-12 22:50:00,
2013-07-12 18:56:00,86.2,75.2,29.86,WSW,252,4.0,7.0,70,0.00,,,0.01,meteohub,2013-07-12 22:56:00,
2013-07-12 19:01:00,86.4,75.4,29.87,West,273,2.0,7.0,70,0.00,,,0.01,meteohub,2013-07-12 23:01:00,
2013-07-12 19:07:00,86.0,75.0,29.87,West,277,4.0,7.0,70,0.00,,,0.01,meteohub,2013-07-12 23:07:00,
2013-07-12 19:12:00,85.3,74.8,29.87,West,278,4.0,6.0,71,0.00,,,0.01,meteohub,2013-07-12 23:12:00,
2013-07-12 19:17:00,84.7,74.3,29.86,WNW,300,4.0,6.0,71,0.00,,,0.01,meteohub,2013-07-12 23:17:00,
2013-07-12 19:22:00,84.6,74.5,29.87,WNW,296,4.0,6.0,72,0.00,,,0.01,meteohub,2013-07-12 23:22:00,
2013-07-12 19:27:00,84.0,73.9,29.87,WNW,296,2.0,5.0,72,0.00,,,0.01,meteohub,2013-07-12 23:27:00,
2013-07-12 19:32:00,84.0,74.5,29.87,WNW,296,2.0,5.0,73,0.00,,,0.01,meteohub,2013-07-12 23:32:00,
2013-07-12 19:38:00,83.8,74.3,29.87,WNW,296,3.0,5.0,73,0.00,,,0.01,meteohub,2013-07-12 23:38:00,
2013-07-12 19:43:00,83.8,74.7,29.87,WNW,296,2.0,4.0,74,0.00,,,0.01,meteohub,2013-07-12 23:43:00,
2013-07-12 19:48:00,83.8,74.7,29.87,WNW,296,3.0,4.0,74,0.00,,,0.01,meteohub,2013-07-12 23:48:00,
2013-07-12 19:53:00,83.7,74.5,29.87,WNW,296,1.0,5.0,74,0.00,,,0.01,meteohub,2013-07-12 23:53:00,
2013-07-12 19:58:00,83.3,74.1,29.87,WNW,295,1.0,5.0,74,0.00,,,0.01,meteohub,2013-07-12 23:58:00,
2013-07-12 20:04:00,82.9,74.7,29.88,WNW,295,2.0,6.0,76,0.00,,,0.01,meteohub,2013-07-13 00:04:00,
2013-07-12 20:09:00,82.2,74.3,29.88,WNW,300,5.0,6.0,77,0.00,,,0.01,meteohub,2013-07-13 00:09:00,
2013-07-12 20:15:00,81.9,74.3,29.88,NW,309,1.0,6.0,78,0.00,,,0.01,meteohub,2013-07-13 00:15:00,
2013-07-12 20:20:00,81.5,74.3,29.88,NW,309,1.0,7.0,79,0.00,,,0.01,meteohub,2013-07-13 00:20:00,
2013-07-12 20:26:00,81.3,74.5,29.89,NE,55,3.0,5.0,80,0.00,,,0.01,meteohub,2013-07-13 00:26:00,
2013-07-12 20:31:00,80.8,72.5,29.89,East,97,3.0,5.0,76,0.00,,,0.01,meteohub,2013-07-13 00:31:00,
2013-07-12 20:37:00,80.2,72.0,29.89,East,97,2.0,6.0,76,0.00,,,0.01,meteohub,2013-07-13 00:37:00,
2013-07-12 20:42:00,80.1,72.1,29.88,East,97,2.0,6.0,77,0.00,,,0.01,meteohub,2013-07-13 00:42:00,
2013-07-12 20:47:00,79.9,72.9,29.89,East,97,1.0,5.0,79,0.00,,,0.01,meteohub,2013-07-13 00:47:00,
2013-07-12 20:52:00,79.5,72.1,29.89,East,97,2.0,3.0,78,0.00,,,0.01,meteohub,2013-07-13 00:52:00,
2013-07-12 20:57:00,79.2,71.8,29.89,East,99,2.0,3.0,78,0.00,,,0.01,meteohub,2013-07-13 00:57:00,
2013-07-12 21:02:00,78.8,71.8,29.89,East,99,1.0,3.0,79,0.00,,,0.01,meteohub,2013-07-13 01:02:00,
2013-07-12 21:08:00,78.6,72.7,29.89,East,99,0.0,3.0,82,0.00,,,0.01,meteohub,2013-07-13 01:08:00,
2013-07-12 21:13:00,77.5,73.4,29.88,East,99,2.0,3.0,87,0.08,,,0.09,meteohub,2013-07-13 01:13:00,
2013-07-12 21:19:00,76.8,73.4,29.89,East,99,1.0,3.0,89,0.13,,,0.14,meteohub,2013-07-13 01:19:00,
2013-07-12 21:24:00,76.3,73.4,29.88,East,99,0.0,3.0,91,0.14,,,0.15,meteohub,2013-07-13 01:24:00,
2013-07-12 21:29:00,75.9,73.4,29.88,East,99,0.0,3.0,92,0.14,,,0.15,meteohub,2013-07-13 01:29:00,
2013-07-12 21:34:00,75.9,73.8,29.88,East,99,0.0,3.0,93,0.14,,,0.15,meteohub,2013-07-13 01:34:00,
2013-07-12 21:40:00,75.9,73.8,29.89,East,99,1.0,3.0,93,0.14,,,0.15,meteohub,2013-07-13 01:40:00,
2013-07-12 21:45:00,75.6,73.4,29.89,East,99,0.0,2.0,93,0.14,,,0.15,meteohub,2013-07-13 01:45:00,
2013-07-12 21:51:00,75.2,73.0,29.89,East,99,0.0,2.0,93,0.14,,,0.15,meteohub,2013-07-13 01:51:00,
2013-07-12 21:56:00,74.8,72.7,29.89,East,99,1.0,2.0,93,0.14,,,0.15,meteohub,2013-07-13 01:56:00,
2013-07-12 22:01:00,74.7,72.5,29.90,East,99,0.0,2.0,93,0.14,,,0.15,meteohub,2013-07-13 02:01:00,
2013-07-12 22:07:00,74.7,72.9,29.90,East,99,0.0,2.0,94,0.14,,,0.15,meteohub,2013-07-13 02:07:00,
2013-07-12 22:12:00,74.7,72.9,29.90,East,99,0.0,2.0,94,0.02,,,0.15,meteohub,2013-07-13 02:12:00,
2013-07-12 22:17:00,74.8,73.0,29.90,East,99,0.0,1.0,94,0.01,,,0.15,meteohub,2013-07-13 02:17:00,
2013-07-12 22:22:00,75.0,73.4,29.90,East,99,1.0,2.0,95,0.00,,,0.15,meteohub,2013-07-13 02:22:00,
2013-07-12 22:27:00,75.2,73.6,29.90,East,99,0.0,2.0,95,0.00,,,0.15,meteohub,2013-07-13 02:27:00,
2013-07-12 22:32:00,75.2,73.6,29.90,East,99,0.0,2.0,95,0.00,,,0.15,meteohub,2013-07-13 02:32:00,
2013-07-12 22:37:00,75.2,73.6,29.90,East,99,0.0,2.0,95,0.00,,,0.15,meteohub,2013-07-13 02:37:00,
2013-07-12 22:42:00,75.4,73.8,29.90,East,99,0.0,1.0,95,0.00,,,0.15,meteohub,2013-07-13 02:42:00,
2013-07-12 22:48:00,75.4,73.8,29.90,East,99,0.0,1.0,95,0.00,,,0.15,meteohub,2013-07-13 02:48:00,
2013-07-12 22:53:00,75.4,73.8,29.91,East,99,0.0,1.0,95,0.00,,,0.15,meteohub,2013-07-13 02:53:00,
2013-07-12 22:58:00,75.6,73.9,29.91,East,99,0.0,1.0,95,0.00,,,0.15,meteohub,2013-07-13 02:58:00,
2013-07-12 23:03:00,75.6,73.9,29.91,East,99,0.0,1.0,95,0.00,,,0.15,meteohub,2013-07-13 03:03:00,
2013-07-12 23:08:00,75.6,73.9,29.91,East,99,0.0,1.0,95,0.00,,,0.15,meteohub,2013-07-13 03:08:00,
2013-07-12 23:14:00,75.6,73.9,29.91,East,99,0.0,1.0,95,0.00,,,0.15,meteohub,2013-07-13 03:14:00,
2013-07-12 23:19:00,75.4,73.8,29.91,East,99,0.0,1.0,95,0.00,,,0.15,meteohub,2013-07-13 03:19:00,
2013-07-12 23:25:00,75.6,73.9,29.91,East,99,0.0,0.0,95,0.00,,,0.15,meteohub,2013-07-13 03:25:00,
2013-07-12 23:30:00,75.6,73.9,29.91,East,99,0.0,1.0,95,0.00,,,0.15,meteohub,2013-07-13 03:30:00,
2013-07-12 23:35:00,75.6,73.9,29.91,East,99,0.0,1.0,95,0.00,,,0.15,meteohub,2013-07-13 03:35:00,
2013-07-12 23:40:00,75.6,73.9,29.91,East,99,0.0,0.0,95,0.00,,,0.15,meteohub,2013-07-13 03:40:00,
2013-07-12 23:46:00,75.6,73.9,29.91,East,99,0.0,0.0,95,0.00,,,0.15,meteohub,2013-07-13 03:46:00,
2013-07-12 23:51:00,75.7,74.5,29.91,East,99,0.0,0.0,96,0.00,,,0.15,meteohub,2013-07-13 03:51:00,
2013-07-12 23:57:00,75.9,74.7,29.91,East,99,0.0,0.0,96,0.00,,,0.15,meteohub,2013-07-13 03:57:00,